TimeCDT,TemperatureF,Dew PointF,Humidity,Sea Level PressureIn,VisibilityMPH,Wind Direction,Wind SpeedMPH,Gust SpeedMPH,PrecipitationIn,Events,Conditions,WindDirDegrees,DateUTC
12:52 AM,80.1,75.9,87,29.70,10.0,South,24.2,29.9,0.00,,Overcast,170,2012-09-30 05:52:00
1:52 AM,78.1,75.9,93,29.70,10.0,South,24.2,32.2,0.01,,Mostly Cloudy,190,2012-09-30 06:52:00
2:50 AM,78.8,75.2,89,29.68,10.0,SSW,18.4,26.5,N/A,,Mostly Cloudy,210,2012-09-30 07:50:00
2:52 AM,79.0,75.9,90,29.68,10.0,SSW,20.7,26.5,N/A,,Mostly Cloudy,210,2012-09-30 07:52:00
3:52 AM,79.0,77.0,94,29.65,9.0,SW,13.8,-,0.04,Rain,Light Rain,220,2012-09-30 08:52:00
4:39 AM,78.8,77.0,94,29.63,10.0,SW,10.4,-,0.09,,Mostly Cloudy,230,2012-09-30 09:39:00
4:52 AM,79.0,77.0,94,29.63,10.0,WSW,6.9,-,0.09,Rain,Light Rain,240,2012-09-30 09:52:00
5:42 AM,77.0,75.2,94,29.63,10.0,WSW,9.2,16.1,0.00,,Scattered Clouds,240,2012-09-30 10:42:00
5:52 AM,77.0,75.9,96,29.63,10.0,WSW,8.1,17.3,0.00,,Mostly Cloudy,250,2012-09-30 10:52:00
6:18 AM,75.2,75.2,100,29.64,10.0,WSW,9.2,-,N/A,,Overcast,250,2012-09-30 11:18:00
6:52 AM,73.9,73.0,97,29.65,10.0,West,15.0,21.9,N/A,,Mostly Cloudy,260,2012-09-30 11:52:00
7:25 AM,73.4,71.6,94,29.65,10.0,West,13.8,21.9,N/A,,Scattered Clouds,260,2012-09-30 12:25:00
7:49 AM,73.4,71.6,94,29.65,10.0,West,15.0,24.2,N/A,,Mostly Cloudy,260,2012-09-30 12:49:00
7:52 AM,73.0,72.0,96,29.65,10.0,West,11.5,23.0,N/A,,Scattered Clouds,260,2012-09-30 12:52:00
7:59 AM,73.4,71.6,94,29.65,10.0,WSW,11.5,24.2,N/A,,Mostly Cloudy,250,2012-09-30 12:59:00
8:52 AM,73.0,71.1,93,29.66,10.0,West,10.4,19.6,N/A,,Overcast,260,2012-09-30 13:52:00
9:22 AM,73.4,69.8,88,29.66,10.0,WSW,11.5,20.7,N/A,,Overcast,250,2012-09-30 14:22:00
9:52 AM,73.0,70.0,90,29.66,10.0,West,18.4,-,N/A,,Overcast,270,2012-09-30 14:52:00
10:52 AM,73.0,69.1,87,29.66,10.0,WNW,17.3,25.3,N/A,,Overcast,290,2012-09-30 15:52:00
11:52 AM,75.0,70.0,84,29.65,10.0,WNW,12.7,23.0,N/A,,Overcast,290,2012-09-30 16:52:00
12:52 PM,75.0,70.0,84,29.66,10.0,NW,21.9,27.6,N/A,,Overcast,320,2012-09-30 17:52:00
12:59 PM,75.2,71.6,89,29.66,10.0,NW,16.1,28.8,N/A,,Overcast,310,2012-09-30 17:59:00
1:52 PM,73.9,69.1,85,29.65,10.0,NW,20.7,27.6,0.00,Rain,Light Rain,310,2012-09-30 18:52:00
1:58 PM,71.6,69.8,94,29.65,8.0,NW,24.2,27.6,0.00,Rain,Light Rain,310,2012-09-30 18:58:00
2:06 PM,73.4,71.6,94,29.65,7.0,NW,19.6,27.6,0.00,Rain,Light Rain,310,2012-09-30 19:06:00
2:14 PM,73.4,69.8,88,29.65,10.0,NW,20.7,28.8,0.00,,Overcast,310,2012-09-30 19:14:00
2:24 PM,73.4,69.8,88,29.64,10.0,NW,20.7,31.1,0.00,,Overcast,310,2012-09-30 19:24:00
2:52 PM,73.0,68.0,84,29.65,10.0,WNW,20.7,28.8,0.00,,Overcast,300,2012-09-30 19:52:00
3:52 PM,72.0,66.9,84,29.66,10.0,NW,21.9,31.1,N/A,,Overcast,320,2012-09-30 20:52:00
4:52 PM,73.0,66.0,79,29.66,10.0,NW,20.7,27.6,N/A,,Overcast,320,2012-09-30 21:52:00
5:52 PM,72.0,66.0,81,29.68,10.0,NW,25.3,31.1,N/A,,Overcast,320,2012-09-30 22:52:00
6:52 PM,71.1,64.9,81,29.69,10.0,NW,21.9,29.9,N/A,,Overcast,310,2012-09-30 23:52:00
7:52 PM,70.0,64.9,84,29.72,10.0,NW,21.9,28.8,N/A,,Overcast,320,2012-10-01 00:52:00
8:52 PM,68.0,63.0,84,29.74,10.0,NW,21.9,29.9,N/A,,Overcast,320,2012-10-01 01:52:00
9:52 PM,68.0,61.0,78,29.76,10.0,NNW,24.2,35.7,N/A,,Overcast,340,2012-10-01 02:52:00
10:52 PM,68.0,61.0,78,29.78,10.0,NNW,25.3,36.8,N/A,,Overcast,340,2012-10-01 03:52:00
11:52 PM,66.9,60.1,79,29.78,10.0,NW,18.4,26.5,N/A,,Overcast,320,2012-10-01 04:52:00